Huvudsida
METAR-TAF:

METAR-TAF

Flygplatser :

Örnsköldsvik, Sverige

Örnsköldsvik Airport

latitud: 63-24N, longitud: 018-58E, höjd: 103 m

Aktuellt väderrapport

Denna rapport gjordes för 32 minuter sedan, klockan 10:20 UTC
Vind 8 kt från ost
Temperatur -6°C
Fuktighet 93%
Tryck 997 hPa
Sikt 10 km eller mer
Få moln på en höjd av 1200 ft
Brutna moln på en höjd av 2700 ft
kornsnö

METAR: ESNO 171020Z 09008KT 9999 R12/1500 R30/P1500N SG FEW012 BKN027 M06/M07 Q0997

Tid: 11:52 (10:52 UTC)

Väderprognos

Denna rapport gjordes för 2 timmar och 22 minuter sedan, klockan 08:30 UTC
Prognos gäller från 17 kl. 09 UTC till 17 kl. 18 UTC
Vind 12 kt från ost/sydost
Sikt 10 km eller mer
Mulet på en höjd av 1500 ft
Temporärt
från 17 kl. 09 UTC till 17 kl. 18 UTC
Sikt: 1000 m
på en höjd av 900 ft
snö

TAF: ESNO 170830Z 1709/1718 12012KT 9999 OVC015 TEMPO 1709/1718 1000 SN VV009

Aktuella väderrapporter och prognoser från 4000 flygplatser (METAR- och TAF-rapporter).

De tillgängliga stationerna syns som gula och röda prickar på kartan.

För musen över prickarna för att se namnen på stationerna.

Klicka sedan för att få väderrapporter och prognoser.

För att ändra kartan: Klicka på de gröna knapparna med ett svart kors på för att zooma in; den gröna knappen med ett streck på för att zooma ut; eller på de gröna pilarna för angränsande kartor.


METAR-TAF: